Time;durP1;ratioP1;P1;durP2;ratioP2;P2;SDS_P1;SDS_P2;PMS_P1;PMS_P2;Temp;Humidity;BMP_temperature;BMP_pressure;BME280_temperature;BME280_humidity;BME280_pressure;Samples;Min_cycle;Max_cycle;Signal;HPM_P1;HPM_P2
2023/01/03 00:04:40;;;;;;;25.85;8.27;;;;;;;-19.38;67.45;99925.63;4837363;28;20105;-64
2023/01/03 00:10:13;;;;;;;4.18;3.88;;;;;;;-19.55;67.51;99915.69;4829909;28;20042;-64
2023/01/03 00:13:07;;;;;;;4.35;3.97;;;;;;;-19.42;67.81;99914.50;4860197;28;20077;-67
2023/01/03 00:15:54;;;;;;;3.90;3.70;;;;;;;-19.50;68.00;99857.28;4865544;28;20058;-67
2023/01/03 00:18:33;;;;;;;4.13;3.83;;;;;;;-19.05;67.63;99910.50;4782287;28;20101;-67
2023/01/03 00:21:50;;;;;;;4.32;4.03;;;;;;;-18.81;67.92;99911.91;4842967;28;20050;-67
2023/01/03 00:30:27;;;;;;;4.18;3.92;;;;;;;-18.50;67.32;99904.72;4813231;28;20054;-67
2023/01/03 00:33:13;;;;;;;4.18;3.80;;;;;;;-18.34;67.33;99907.88;4832226;28;20052;-67
2023/01/03 00:35:59;;;;;;;4.00;3.70;;;;;;;-18.03;67.16;99895.69;4817208;28;20054;-69
2023/01/03 00:38:48;;;;;;;4.03;3.72;;;;;;;-17.83;66.78;99899.94;4819213;28;20122;-66
2023/01/03 00:41:38;;;;;;;3.60;3.40;;;;;;;-17.85;66.27;99881.47;4816767;28;20102;-65
2023/01/03 00:44:21;;;;;;;10.65;3.95;;;;;;;-17.55;66.44;99900.72;4815358;28;20052;-69
2023/01/03 00:47:22;;;;;;;3.80;3.50;;;;;;;-17.22;66.00;99894.41;4812695;28;20222;-69
2023/01/03 00:50:23;;;;;;;6.50;4.88;;;;;;;-17.06;65.62;99892.50;4806542;28;20119;-67
2023/01/03 00:53:07;;;;;;;4.93;3.80;;;;;;;-16.73;65.70;99873.56;4764615;28;20082;-69
2023/01/03 00:55:55;;;;;;;4.72;3.60;;;;;;;-17.21;65.03;99769.66;4842491;28;20102;-68
2023/01/03 00:58:48;;;;;;;5.28;3.70;;;;;;;-16.80;65.12;99821.34;4807612;28;20051;-67
2023/01/03 01:01:35;;;;;;;3.70;3.40;;;;;;;-16.19;65.23;99861.41;4815333;28;20163;-68
2023/01/03 01:04:40;;;;;;;3.78;3.33;;;;;;;-15.83;64.50;99870.16;4832037;28;20059;-68
2023/01/03 01:07:15;;;;;;;4.70;3.35;;;;;;;-15.57;64.26;99856.31;4781021;28;20063;-69
2023/01/03 01:10:08;;;;;;;6.55;4.00;;;;;;;-15.42;63.26;99855.03;4805077;28;20142;-70
2023/01/03 01:12:57;;;;;;;40.55;16.08;;;;;;;-15.24;63.03;99853.97;4839093;28;20047;-69
2023/01/03 01:15:47;;;;;;;16.50;8.75;;;;;;;-14.98;63.22;99861.75;4813660;28;20050;-69
2023/01/03 01:18:52;;;;;;;10.15;5.65;;;;;;;-14.42;63.82;99848.50;4799784;28;20106;-68
2023/01/03 01:27:20;;;;;;;6.10;4.28;;;;;;;-13.28;61.57;99834.16;4823251;28;20064;-70
2023/01/03 01:30:14;;;;;;;5.78;3.45;;;;;;;-13.02;60.66;99825.03;4830135;28;20084;-70
2023/01/03 01:36:24;;;;;;;9.45;3.95;;;;;;;-12.35;60.77;99822.09;4855646;28;20157;-70
2023/01/03 01:39:19;;;;;;;8.05;3.83;;;;;;;-12.10;59.82;99811.09;4798034;28;20055;-70
2023/01/03 01:45:37;;;;;;;5.72;3.45;;;;;;;-11.87;57.07;99810.97;4846969;28;20049;-71
2023/01/03 01:48:22;;;;;;;6.90;3.80;;;;;;;-11.75;56.79;99816.78;4856151;28;20094;-71
2023/01/03 01:51:27;;;;;;;3.55;2.50;;;;;;;-11.50;56.96;99808.25;4826897;28;20053;-71
2023/01/03 01:54:26;;;;;;;14.23;6.85;;;;;;;-11.43;55.72;99817.97;4840165;28;20046;-70
2023/01/03 01:57:31;;;;;;;7.70;4.18;;;;;;;-11.23;55.96;99823.38;4808038;28;20060;-71
2023/01/03 02:00:07;;;;;;;6.75;3.40;;;;;;;-11.36;54.47;99822.59;4785339;28;20055;-70
2023/01/03 02:02:57;;;;;;;4.55;3.30;;;;;;;-11.61;54.87;99815.13;4819611;28;20474;-71
2023/01/03 02:05:58;;;;;;;5.30;3.47;;;;;;;-11.60;56.17;99805.94;4798498;28;20039;-71
2023/01/03 02:09:02;;;;;;;9.15;5.30;;;;;;;-11.55;56.47;99809.63;4813917;28;20133;-71
2023/01/03 02:11:48;;;;;;;;;;;;;;;-11.76;54.91;99801.53;4809229;28;20057;-71
2023/01/03 02:14:44;;;;;;;14.57;7.47;;;;;;;-11.62;54.47;99797.41;4812148;28;19932;-72
2023/01/03 02:17:55;;;;;;;8.70;3.70;;;;;;;-11.64;53.77;99793.91;4769277;28;20048;-75
2023/01/03 02:21:20;;;;;;;11.02;6.10;;;;;;;-11.71;53.94;99777.50;4802343;28;22614;-72
2023/01/03 02:24:28;;;;;;;8.82;3.90;;;;;;;-11.45;54.88;99790.91;4808142;28;20073;-71
2023/01/03 02:31:08;;;;;;;5.32;3.53;;;;;;;-11.43;53.68;99795.28;4812212;28;20043;-69
2023/01/03 02:40:22;;;;;;;3.67;2.63;;;;;;;-11.72;53.20;99791.75;4847878;28;20047;-72
2023/01/03 02:43:10;;;;;;;3.88;2.33;;;;;;;-11.70;52.54;99773.34;4791359;28;20043;-70
2023/01/03 02:49:26;;;;;;;3.17;2.20;;;;;;;-11.93;51.65;99755.13;4829520;28;20061;-72
2023/01/03 02:55:38;;;;;;;6.03;2.10;;;;;;;-11.62;52.68;99764.63;4648758;27;8880989;-72
2023/01/03 02:58:40;;;;;;;4.95;2.30;;;;;;;-11.63;52.63;99746.13;4971495;27;20051;-74
2023/01/03 03:01:28;;;;;;;5.65;3.05;;;;;;;-11.56;52.44;99758.31;4976932;27;20051;-72
2023/01/03 03:07:19;;;;;;;3.72;2.45;;;;;;;-11.73;52.42;99734.59;4966138;27;20047;-75
2023/01/03 03:13:25;;;;;;;3.83;3.10;;;;;;;-11.55;52.24;99744.09;4965891;27;20564;-75
2023/01/03 03:16:13;;;;;;;4.35;2.80;;;;;;;-11.48;52.79;99741.16;4944962;27;20137;-72
2023/01/03 03:25:20;;;;;;;3.95;2.50;;;;;;;-11.11;52.41;99730.78;4974434;27;20051;-74
2023/01/03 03:31:28;;;;;;;4.85;2.70;;;;;;;-11.37;52.67;99725.03;4969899;27;20043;-68
2023/01/03 03:34:27;;;;;;;5.05;2.80;;;;;;;-11.31;52.61;99735.50;4972224;27;20050;-75
2023/01/03 03:37:19;;;;;;;4.57;2.78;;;;;;;-11.42;52.31;99696.16;4965459;27;20058;-72
2023/01/03 03:46:07;;;;;;;3.33;2.08;;;;;;;-11.81;53.46;99715.56;4981325;27;20359;-72
2023/01/03 03:52:05;;;;;;;6.30;2.33;;;;;;;-12.16;54.22;99709.19;4998508;27;20069;-75
2023/01/03 03:54:53;;;;;;;5.63;2.83;;;;;;;-11.89;54.14;99719.28;4968114;27;20044;-71
2023/01/03 03:57:58;;;;;;;7.55;3.72;;;;;;;-11.56;54.47;99717.09;4987643;27;20399;-72
2023/01/03 04:00:49;;;;;;;4.72;2.90;;;;;;;-11.47;53.94;99657.19;4967143;27;20062;-68
2023/01/03 04:03:44;;;;;;;2.88;2.53;;;;;;;-10.72;54.21;99712.13;4962714;27;20269;-74
2023/01/03 04:06:37;;;;;;;3.83;2.60;;;;;;;-10.50;54.69;99701.63;4946561;28;20040;-72
2023/01/03 04:09:19;;;;;;;2.75;2.40;;;;;;;-10.52;52.26;99693.09;4946962;27;20655;-70
2023/01/03 04:14:50;;;;;;;3.25;2.10;;;;;;;-11.24;51.08;99687.97;4940334;27;20048;-71
2023/01/03 04:17:32;;;;;;;4.55;2.40;;;;;;;-11.51;52.87;99700.63;4952914;28;20138;-71
2023/01/03 04:20:26;;;;;;;3.28;2.10;;;;;;;-11.59;54.03;99691.72;4917516;28;20065;-71
2023/01/03 04:23:35;;;;;;;4.50;2.30;;;;;;;-11.35;53.96;99687.31;4910840;28;20549;-75
2023/01/03 04:26:48;;;;;;;2.72;2.22;;;;;;;-11.57;53.76;99644.81;4947328;28;20055;-70
2023/01/03 04:29:56;;;;;;;4.15;2.28;;;;;;;-11.53;51.09;99687.94;4955226;27;20056;-69
2023/01/03 04:32:52;;;;;;;3.42;2.30;;;;;;;-11.60;53.00;99684.94;4968173;28;20107;-71
2023/01/03 04:38:40;;;;;;;5.53;2.40;;;;;;;-11.74;53.40;99687.47;4938348;28;20560;-72
2023/01/03 04:41:28;;;;;;;4.82;2.28;;;;;;;-11.79;53.44;99677.88;4930159;28;20077;-72
2023/01/03 04:47:19;;;;;;;3.83;2.10;;;;;;;-11.78;53.93;99674.56;4951942;27;20063;-71
2023/01/03 04:49:56;;;;;;;2.30;2.10;;;;;;;-11.75;54.22;99670.63;4946739;27;20059;-72
2023/01/03 04:52:39;;;;;;;4.70;2.60;;;;;;;-11.67;54.50;99672.75;4925374;28;20047;-69
2023/01/03 04:55:30;;;;;;;3.75;2.40;;;;;;;-11.29;55.97;99675.94;4940409;28;20040;-71
2023/01/03 04:58:20;;;;;;;4.68;2.55;;;;;;;-11.03;55.32;99655.56;4943947;28;20051;-71
2023/01/03 05:01:24;;;;;;;4.60;2.20;;;;;;;-10.84;53.98;99677.72;4899018;28;20070;-73
2023/01/03 05:04:21;;;;;;;4.70;2.10;;;;;;;-10.75;54.44;99673.22;4949351;27;20055;-72
2023/01/03 05:10:03;;;;;;;3.65;2.30;;;;;;;-10.81;54.04;99677.91;4952574;27;20528;-71
2023/01/03 05:12:58;;;;;;;3.40;2.10;;;;;;;-10.84;54.57;99680.25;4915261;27;20060;-70
2023/01/03 05:15:38;;;;;;;5.13;2.35;;;;;;;-10.83;54.43;99669.34;4885358;28;20044;-71
2023/01/03 05:18:45;;;;;;;7.60;3.78;;;;;;;-10.63;56.40;99684.03;4936810;28;20035;-70
2023/01/03 05:28:07;;;;;;;4.10;2.42;;;;;;;-10.97;54.17;99686.22;4871826;28;20049;-69
2023/01/03 05:31:14;;;;;;;2.60;2.20;;;;;;;-11.38;53.12;99693.06;4872557;28;20095;-69
2023/01/03 05:34:07;;;;;;;2.70;2.15;;;;;;;-11.53;53.63;99687.03;4853314;28;20053;-69
2023/01/03 05:36:59;;;;;;;3.17;2.33;;;;;;;-11.37;53.84;99699.81;4844640;28;20058;-68
2023/01/03 05:39:40;;;;;;;2.28;2.08;;;;;;;-11.40;54.76;99709.72;4851839;28;20072;-67
2023/01/03 05:42:20;;;;;;;4.22;2.65;;;;;;;-11.41;54.69;99707.97;4826569;28;20098;-66
2023/01/03 05:45:26;;;;;;;2.80;2.20;;;;;;;-11.25;54.88;99708.94;4865293;28;20068;-71
2023/01/03 05:48:18;;;;;;;4.15;2.00;;;;;;;-11.31;54.15;99712.78;4874353;28;20469;-67
2023/01/03 05:51:00;;;;;;;2.85;2.10;;;;;;;-11.60;53.67;99684.94;4879418;28;20289;-69
2023/01/03 05:53:45;;;;;;;5.55;2.30;;;;;;;-11.42;54.15;99701.19;4834081;28;20117;-69
2023/01/03 05:56:28;;;;;;;3.58;2.13;;;;;;;-11.39;53.78;99706.41;4900072;28;20050;-68
2023/01/03 05:59:14;;;;;;;4.00;2.60;;;;;;;-11.58;53.65;99699.38;4868033;28;20522;-73
2023/01/03 06:02:17;;;;;;;5.03;2.20;;;;;;;-11.62;53.80;99716.75;4855603;28;20067;-70
2023/01/03 06:05:08;;;;;;;4.80;2.20;;;;;;;-11.70;53.79;99708.72;4900703;28;20059;-70
2023/01/03 06:07:54;;;;;;;3.25;2.00;;;;;;;-11.79;53.92;99714.03;4963158;27;20040;-71
2023/01/03 06:10:44;;;;;;;6.20;2.60;;;;;;;-12.10;54.03;99685.16;4952872;28;20040;-71
2023/01/03 06:13:30;;;;;;;3.72;2.08;;;;;;;-12.37;52.73;99715.38;4913706;27;20039;-72
2023/01/03 06:19:11;;;;;;;22.58;8.75;;;;;;;-12.52;55.24;99724.44;4921920;28;20149;-70
2023/01/03 06:22:17;;;;;;;28.17;11.27;;;;;;;-12.57;55.39;99715.72;4970482;28;20068;-69
2023/01/03 06:25:19;;;;;;;11.50;5.38;;;;;;;-12.71;55.63;99723.19;4942657;28;20039;-71
2023/01/03 06:28:02;;;;;;;7.63;3.35;;;;;;;-12.82;55.81;99719.13;4957632;27;20052;-71
2023/01/03 06:31:16;;;;;;;7.70;3.30;;;;;;;-12.95;55.56;99726.59;4897645;28;1480248;-70
2023/01/03 06:34:11;;;;;;;8.50;3.90;;;;;;;-12.81;56.98;99735.94;4933601;28;20048;-70
2023/01/03 06:37:05;;;;;;;15.68;5.80;;;;;;;-12.70;58.87;99727.47;4932704;28;20044;-70
2023/01/03 06:40:00;;;;;;;6.57;3.38;;;;;;;-13.06;56.55;99743.47;4939408;28;20151;-67
2023/01/03 06:42:47;;;;;;;2.90;2.47;;;;;;;-13.39;55.83;99737.03;4930396;28;20052;-69
2023/01/03 06:54:31;;;;;;;4.55;2.72;;;;;;;-13.46;57.59;99745.78;4923442;28;20328;-69
2023/01/03 06:57:38;;;;;;;7.32;3.63;;;;;;;-13.63;57.79;99751.25;4941086;28;20097;-69
2023/01/03 07:00:57;;;;;;;7.43;2.90;;;;;;;-14.16;57.27;99691.44;4937121;28;20051;-68
2023/01/03 07:03:58;;;;;;;8.73;4.40;;;;;;;-14.06;58.07;99748.19;4941741;28;20560;-69
2023/01/03 07:06:42;;;;;;;10.10;5.93;;;;;;;-14.23;58.52;99744.47;4919385;28;20078;-68
2023/01/03 07:09:26;;;;;;;29.33;13.43;;;;;;;-14.61;58.63;99740.06;4904442;28;20077;-69
2023/01/03 07:13:57;;;;;;;21.45;10.45;;;;;;;-14.44;60.02;99739.63;4942112;28;20048;-68
2023/01/03 07:15:04;;;;;;;55.83;28.58;;;;;;;-14.86;59.57;99748.25;4922911;28;20044;-69
2023/01/03 07:17:43;;;;;;;47.78;19.60;;;;;;;-15.36;59.29;99750.28;4926457;28;20044;-68
2023/01/03 07:20:30;;;;;;;43.80;18.42;;;;;;;-15.64;60.27;99744.78;4926454;28;20123;-68
2023/01/03 07:23:17;;;;;;;24.77;12.00;;;;;;;-16.08;61.14;99730.53;4927719;28;20100;-68
2023/01/03 07:26:11;;;;;;;7.40;4.88;;;;;;;-16.44;62.42;99748.47;4934215;28;20040;-68
2023/01/03 07:28:51;;;;;;;6.95;3.90;;;;;;;-16.76;63.16;99743.34;4924379;28;20052;-68
2023/01/03 07:31:34;;;;;;;7.05;4.03;;;;;;;-16.85;64.25;99732.63;4883863;28;20059;-68
2023/01/03 07:37:26;;;;;;;19.77;8.75;;;;;;;-16.80;64.63;99744.75;4919158;28;20052;-68
2023/01/03 07:40:39;;;;;;;17.50;9.10;;;;;;;-17.21;65.01;99741.31;4951173;28;20079;-69
2023/01/03 07:43:47;;;;;;;9.50;5.25;;;;;;;-17.55;66.65;99743.44;4920339;28;20087;-69
2023/01/03 07:46:28;;;;;;;9.80;4.75;;;;;;;-17.89;67.51;99670.75;4941433;28;20109;-69
2023/01/03 07:49:13;;;;;;;8.95;4.53;;;;;;;-17.31;67.89;99746.28;4952488;28;20327;-70
2023/01/03 07:55:10;;;;;;;15.50;6.55;;;;;;;-17.11;68.41;99733.84;4917425;28;20041;-68
2023/01/03 07:58:02;;;;;;;42.90;14.75;;;;;;;-17.18;68.40;99741.56;4858842;28;20109;-69
2023/01/03 08:04:10;;;;;;;22.10;8.15;;;;;;;-17.46;68.54;99734.25;4931248;28;20086;-68
2023/01/03 08:06:52;;;;;;;8.80;5.15;;;;;;;-17.32;69.33;99737.03;4904700;28;20060;-68
2023/01/03 08:13:32;;;;;;;29.58;8.45;;;;;;;-17.56;69.77;99716.75;4949487;28;20053;-64
2023/01/03 08:16:09;;;;;;;11.35;6.28;;;;;;;-17.36;69.90;99735.03;4940113;28;20058;-67
2023/01/03 08:19:15;;;;;;;8.68;5.65;;;;;;;-17.41;69.35;99733.03;4914399;28;20378;-67
2023/01/03 08:22:07;;;;;;;15.15;7.25;;;;;;;-17.63;69.33;99739.44;4883316;28;20044;-67
2023/01/03 08:25:02;;;;;;;5.70;4.93;;;;;;;-17.73;69.65;99741.88;4910852;28;20059;-66
2023/01/03 08:27:43;;;;;;;5.35;4.82;;;;;;;-17.91;69.99;99739.59;4912431;28;20454;-65
2023/01/03 08:30:54;;;;;;;7.25;4.63;;;;;;;-18.17;70.66;99726.47;4883599;28;20052;-66
2023/01/03 08:34:00;;;;;;;5.47;4.50;;;;;;;-18.17;71.06;99746.41;4921589;28;20083;-67
2023/01/03 08:37:28;;;;;;;6.05;3.92;;;;;;;-18.10;71.09;99743.72;4928320;28;20048;-64
2023/01/03 08:40:14;;;;;;;12.57;6.10;;;;;;;-18.17;71.24;99742.31;4900969;28;20355;-63
2023/01/03 08:43:00;;;;;;;6.28;5.10;;;;;;;-18.10;71.67;99743.72;4928949;28;20059;-68
2023/01/03 08:46:21;;;;;;;5.05;3.67;;;;;;;-17.87;71.80;99744.13;4886364;28;20073;-63
2023/01/03 08:49:13;;;;;;;4.10;3.80;;;;;;;-17.89;71.41;99745.59;4948280;28;20077;-65
2023/01/03 08:54:53;;;;;;;3.45;3.17;;;;;;;-18.28;71.36;99751.34;4935780;28;20296;-68
2023/01/03 08:57:36;;;;;;;3.72;3.42;;;;;;;-18.35;71.78;99751.53;4876483;28;20048;-66
2023/01/03 09:00:44;;;;;;;4.22;3.83;;;;;;;-18.21;72.19;99744.41;4927900;28;20052;-67
2023/01/03 09:03:38;;;;;;;16.70;8.60;;;;;;;-17.97;72.42;99749.03;4921182;28;20081;-64
2023/01/03 09:06:27;;;;;;;10.88;7.28;;;;;;;-18.02;71.90;99747.75;4932768;28;20058;-67
2023/01/03 09:09:09;;;;;;;3.78;3.47;;;;;;;-18.06;71.70;99750.75;4914305;28;20600;-67
2023/01/03 09:11:51;;;;;;;4.43;4.03;;;;;;;-18.28;71.18;99748.84;4940538;28;20395;-67
2023/01/03 09:14:44;;;;;;;3.72;3.40;;;;;;;-18.35;71.46;99746.56;4886636;28;20379;-64
2023/01/03 09:17:30;;;;;;;3.80;3.50;;;;;;;-18.53;71.64;99754.91;4902261;28;20053;-66
2023/01/03 09:20:40;;;;;;;5.82;3.90;;;;;;;-18.40;72.26;99756.88;4912387;28;84962;-69
2023/01/03 09:23:20;;;;;;;4.78;3.55;;;;;;;-18.35;71.99;99736.59;4891519;28;20051;-70
2023/01/03 09:26:16;;;;;;;11.98;6.47;;;;;;;-18.44;71.66;99750.75;4928088;28;20064;-64
2023/01/03 09:29:08;;;;;;;3.80;3.47;;;;;;;-18.55;71.96;99751.41;4931796;28;20044;-65
2023/01/03 09:31:56;;;;;;;5.85;4.53;;;;;;;-18.58;72.01;99746.16;4889521;28;20305;-67
2023/01/03 09:34:51;;;;;;;4.40;4.00;;;;;;;-18.58;72.13;99756.13;4911767;28;20041;-67
2023/01/03 09:37:43;;;;;;;4.00;3.60;;;;;;;-18.57;72.14;99752.88;4911709;28;20216;-65
2023/01/03 09:41:22;;;;;;;38.83;10.02;;;;;;;-18.18;72.81;99744.69;4886102;28;20051;-66
2023/01/03 09:44:08;;;;;;;18.08;6.47;;;;;;;-18.30;71.29;99750.31;4915324;28;20408;-64
2023/01/03 09:46:56;;;;;;;24.80;8.43;;;;;;;-18.46;70.17;99757.22;4911289;28;20433;-67
2023/01/03 09:49:56;;;;;;;24.13;8.50;;;;;;;-18.56;69.86;99744.69;4924008;28;20040;-66
2023/01/03 10:06:26;;;;;;;57.22;11.85;;;;;;;-18.84;69.68;99742.25;4912903;28;20115;-65
2023/01/03 10:09:24;;;;;;;315.98;50.47;;;;;;;-19.01;68.97;99742.34;4902637;28;20437;-65
2023/01/03 10:12:35;;;;;;;61.65;16.23;;;;;;;-19.09;68.78;99735.75;4914454;28;20094;-67
2023/01/03 10:15:30;;;;;;;46.78;11.80;;;;;;;-19.01;68.73;99747.31;4887692;28;20552;-66
2023/01/03 10:18:51;;;;;;;30.67;9.00;;;;;;;-19.17;67.93;99745.03;4886494;28;20125;-66
2023/01/03 10:21:48;;;;;;;;;;;;;;;-19.42;67.56;99751.84;4939183;28;20107;-64
2023/01/03 10:24:55;;;;;;;19.45;7.03;;;;;;;-19.41;68.59;99748.66;4931521;28;20122;-64
2023/01/03 10:28:02;;;;;;;11.52;7.22;;;;;;;-19.34;69.71;99733.56;4909044;28;20212;-63
2023/01/03 10:31:07;;;;;;;155.23;33.80;;;;;;;-19.23;69.28;99745.34;4854202;28;20481;-65
2023/01/03 10:34:11;;;;;;;76.30;18.75;;;;;;;-19.45;68.57;99747.47;4802301;28;20057;-65
2023/01/03 10:37:21;;;;;;;98.45;19.10;;;;;;;-19.30;69.35;99752.13;4842041;28;20060;-64
2023/01/03 10:40:17;;;;;;;224.82;39.80;;;;;;;-19.41;68.71;99748.66;4810839;28;20681;-65
2023/01/03 10:43:38;;;;;;;266.45;49.05;;;;;;;-20.13;68.22;99655.81;4856400;28;23058;-64
2023/01/03 10:50:02;;;;;;;174.80;36.40;;;;;;;-19.49;68.24;99742.06;4843400;28;20056;-64
2023/01/03 10:53:03;;;;;;;157.82;36.47;;;;;;;-19.70;67.33;99749.34;4844074;28;20057;-66
2023/01/03 10:56:07;;;;;;;112.22;26.15;;;;;;;-19.80;67.37;99751.69;4842774;28;20061;-65
2023/01/03 10:58:46;;;;;;;152.38;31.58;;;;;;;-19.82;67.48;99743.22;4838066;28;20046;-65
2023/01/03 11:02:04;;;;;;;103.18;24.75;;;;;;;-19.68;67.49;99755.34;4782003;28;20140;-63
2023/01/03 11:04:41;;;;;;;78.22;24.20;;;;;;;-19.40;67.90;99755.38;4849808;28;20046;-64
2023/01/03 11:07:17;;;;;;;153.82;35.35;;;;;;;-19.54;67.40;99739.19;4840332;28;20078;-65
2023/01/03 11:09:57;;;;;;;108.82;26.88;;;;;;;-19.50;66.95;99747.78;4912204;28;20351;-64
2023/01/03 11:12:45;;;;;;;211.25;47.55;;;;;;;-19.58;66.42;99745.47;4913938;28;20045;-62
2023/01/03 11:16:01;;;;;;;176.48;40.80;;;;;;;-19.79;65.77;99743.50;4953058;28;20056;-65
2023/01/03 11:18:41;;;;;;;65.35;17.95;;;;;;;-19.89;65.78;99743.38;4819883;28;20549;-64
2023/01/03 11:21:27;;;;;;;54.80;14.45;;;;;;;-19.99;65.81;99743.25;4904724;28;20061;-65
2023/01/03 11:24:32;;;;;;;63.65;15.82;;;;;;;-20.02;65.85;99744.69;4937516;28;20111;-66
2023/01/03 11:27:57;;;;;;;49.42;14.63;;;;;;;-20.14;65.80;99731.13;4899389;28;20115;-65
2023/01/03 11:34:09;;;;;;;19.40;6.63;;;;;;;-20.23;67.81;99732.75;4906359;28;20081;-64
2023/01/03 11:37:03;;;;;;;23.30;9.55;;;;;;;-20.17;67.89;99743.25;4919729;28;20051;-65
2023/01/03 11:40:06;;;;;;;16.67;7.18;;;;;;;-20.27;67.70;99740.63;4862351;28;20049;-64
2023/01/03 11:42:59;;;;;;;27.20;12.50;;;;;;;-19.92;69.06;99738.13;4931136;28;20140;-63
2023/01/03 11:46:18;;;;;;;26.10;10.60;;;;;;;-20.17;68.63;99737.41;4952382;28;20048;-63
2023/01/03 11:49:25;;;;;;;12.45;6.70;;;;;;;-20.33;70.05;99745.03;4901829;28;20115;-63
2023/01/03 11:52:29;;;;;;;66.88;18.75;;;;;;;-20.18;70.37;99746.47;4920292;28;20082;-62
2023/01/03 11:55:49;;;;;;;34.15;13.73;;;;;;;-19.77;70.99;99737.06;4910375;28;20450;-62
2023/01/03 11:59:13;;;;;;;16.02;6.70;;;;;;;-19.92;69.94;99740.59;4944459;28;20040;-63
2023/01/03 12:02:41;;;;;;;22.48;7.78;;;;;;;-19.68;70.65;99732.94;4873432;28;20124;-64
2023/01/03 12:06:01;;;;;;;36.60;14.35;;;;;;;-19.91;69.72;99734.91;4860776;28;20099;-64
2023/01/03 12:08:57;;;;;;;34.60;12.48;;;;;;;-20.00;68.92;99746.47;4883576;28;20372;-63
2023/01/03 12:12:31;;;;;;;23.85;9.20;;;;;;;-19.99;69.60;99738.25;4830548;28;20053;-64
2023/01/03 12:15:19;;;;;;;9.63;5.10;;;;;;;-19.66;70.49;99746.38;4884804;28;20056;-62
2023/01/03 12:24:14;;;;;;;15.25;6.50;;;;;;;-19.09;73.17;99743.22;4952809;27;20110;-86
2023/01/03 12:26:58;;;;;;;15.50;7.30;;;;;;;-19.50;72.29;99688.94;4951108;27;20227;-85
2023/01/03 12:29:38;;;;;;;45.35;12.48;;;;;;;-19.72;71.91;99706.03;4948630;27;20061;-85
2023/01/03 12:32:19;;;;;;;78.32;15.27;;;;;;;-18.86;72.71;99766.13;4909756;28;20731;-85
2023/01/03 12:35:04;;;;;;;82.20;20.23;;;;;;;-19.94;72.06;99577.97;4951673;27;20045;-85
2023/01/03 12:37:39;;;;;;;38.50;13.40;;;;;;;-18.99;71.35;99743.31;4949119;27;20059;-82
2023/01/03 12:40:22;;;;;;;45.70;14.20;;;;;;;-19.33;69.78;99736.91;4952938;27;20055;-82
2023/01/03 12:43:05;;;;;;;35.55;10.20;;;;;;;-19.74;68.44;99736.47;4953636;27;20052;-82
2023/01/03 12:45:45;;;;;;;13.48;6.53;;;;;;;-20.26;67.87;99707.59;4948675;27;20470;-82
2023/01/03 12:48:39;;;;;;;32.92;9.15;;;;;;;-20.70;68.65;99622.31;4949210;27;20043;-82
2023/01/03 12:51:10;;;;;;;31.17;10.57;;;;;;;-19.99;68.58;99748.22;4940475;27;20095;-86
2023/01/03 12:53:48;;;;;;;18.77;7.15;;;;;;;-20.02;68.67;99743.81;4975183;27;20039;-85
2023/01/03 12:57:25;;;;;;;22.02;8.93;;;;;;;-19.95;68.54;99747.78;4965328;27;20107;-84
2023/01/03 13:01:08;;;;;;;27.27;9.32;;;;;;;-20.17;68.43;99718.41;4957566;27;20043;-83
2023/01/03 13:04:00;;;;;;;11.23;6.28;;;;;;;-20.17;68.49;99733.31;4965245;27;20043;-85
2023/01/03 13:06:54;;;;;;;11.60;5.63;;;;;;;-19.94;69.33;99742.06;4957134;27;20047;-83
2023/01/03 13:09:37;;;;;;;14.60;6.38;;;;;;;-19.85;69.17;99742.94;4951749;27;20047;-84
2023/01/03 13:12:13;;;;;;;15.13;6.85;;;;;;;-20.30;67.73;99710.53;4935113;27;20134;-85
2023/01/03 13:14:58;;;;;;;18.95;8.50;;;;;;;-20.15;67.20;99745.91;4945310;28;20105;-86
2023/01/03 13:17:30;;;;;;;16.95;7.70;;;;;;;-20.23;67.02;99742.69;4952243;27;20126;-85
2023/01/03 13:20:20;;;;;;;11.15;5.78;;;;;;;-20.19;67.18;99744.72;4971626;27;20051;-84
2023/01/03 13:22:57;;;;;;;9.52;5.03;;;;;;;-20.03;67.33;99737.97;4946489;27;20114;-84
2023/01/03 13:28:55;;;;;;;4.63;3.80;;;;;;;-20.75;66.16;99725.28;4945881;27;19924;-85
2023/01/03 13:32:05;;;;;;;7.35;5.47;;;;;;;-20.99;68.00;99717.22;4963155;27;20056;-84
2023/01/03 13:34:37;;;;;;;15.82;6.95;;;;;;;-20.53;69.05;99715.78;4933183;27;20066;-84
2023/01/03 13:37:19;;;;;;;12.73;6.45;;;;;;;-20.42;69.54;99724.25;4949433;28;20063;-83
2023/01/03 13:40:03;;;;;;;10.30;6.28;;;;;;;-19.98;70.17;99740.03;4934304;27;20053;-85
2023/01/03 13:42:38;;;;;;;9.07;5.63;;;;;;;-20.06;69.63;99739.31;4943603;28;20255;-85
2023/01/03 13:45:56;;;;;;;9.38;5.15;;;;;;;-20.14;68.96;99737.69;4956494;28;20041;-84
2023/01/03 13:48:40;;;;;;;7.50;4.68;;;;;;;-20.34;69.77;99708.47;4944657;27;20540;-83
2023/01/03 13:51:33;;;;;;;6.45;4.82;;;;;;;-20.22;68.83;99749.41;4965423;27;20054;-81
2023/01/03 13:54:25;;;;;;;6.53;3.92;;;;;;;-21.25;68.46;99609.59;4967929;28;20430;-83
2023/01/03 13:57:03;;;;;;;4.63;4.22;;;;;;;-21.42;67.66;99616.28;4965170;27;20358;-84
2023/01/03 13:59:43;;;;;;;7.65;3.90;;;;;;;-20.80;68.32;99704.97;4962551;27;20047;-84
2023/01/03 14:03:01;;;;;;;5.18;3.45;;;;;;;-20.47;68.11;99736.25;4967011;27;20048;-83
2023/01/03 14:06:15;;;;;;;4.35;3.10;;;;;;;-20.45;67.96;99734.78;4891005;27;20064;-81
2023/01/03 14:09:12;;;;;;;32.20;8.30;;;;;;;-21.11;67.52;99711.06;4953872;28;20062;-83
2023/01/03 14:12:02;;;;;;;115.13;20.95;;;;;;;-21.15;68.46;99741.28;4971805;27;20049;-84
2023/01/03 14:14:39;;;;;;;135.65;27.77;;;;;;;-21.52;69.38;99655.81;4962985;28;20128;-82
2023/01/03 14:17:17;;;;;;;89.70;23.10;;;;;;;-20.85;70.08;99749.97;4960001;28;20059;-82
2023/01/03 14:19:51;;;;;;;112.68;23.63;;;;;;;-20.60;70.82;99739.19;4968442;27;20047;-82
2023/01/03 14:22:24;;;;;;;118.60;22.83;;;;;;;-20.49;71.41;99736.13;4958664;28;20041;-81
2023/01/03 14:25:02;;;;;;;85.97;17.85;;;;;;;-20.41;71.16;99730.97;4953800;28;20239;-82
2023/01/03 14:27:38;;;;;;;85.85;17.08;;;;;;;-21.19;70.45;99625.94;4971777;28;20044;-82
2023/01/03 14:30:22;;;;;;;82.22;17.52;;;;;;;-20.59;69.64;99740.94;4965341;27;20125;-83
2023/01/03 14:32:53;;;;;;;38.15;12.25;;;;;;;-20.71;69.79;99729.84;4960151;28;20052;-82
2023/01/03 14:35:35;;;;;;;40.35;11.02;;;;;;;-20.81;70.05;99712.28;4951512;28;20069;-82
2023/01/03 14:38:07;;;;;;;35.75;9.38;;;;;;;-20.75;70.93;99690.53;4955089;28;20070;-82
2023/01/03 14:40:48;;;;;;;22.13;7.45;;;;;;;-20.49;70.31;99728.66;4960312;28;20051;-82
2023/01/03 14:49:01;;;;;;;36.28;9.05;;;;;;;-20.94;68.95;99639.13;4964455;28;20057;-83
2023/01/03 14:51:40;;;;;;;23.05;6.20;;;;;;;-20.58;68.70;99742.72;4949208;28;20244;-82
2023/01/03 14:54:18;;;;;;;12.38;4.82;;;;;;;-21.43;68.10;99691.44;4947272;28;20281;-83
2023/01/03 14:56:50;;;;;;;3.47;3.28;;;;;;;-21.14;69.35;99725.63;4961892;27;20048;-83
2023/01/03 14:59:23;;;;;;;5.85;3.67;;;;;;;-21.01;70.70;99698.84;4970989;27;20052;-83
2023/01/03 15:04:44;;;;;;;6.45;3.70;;;;;;;-20.12;71.84;99732.13;4962806;28;20389;-83
2023/01/03 15:07:31;;;;;;;6.25;3.45;;;;;;;-20.70;70.76;99647.16;4954408;28;20059;-83
2023/01/03 15:10:15;;;;;;;4.63;3.30;;;;;;;-21.19;69.66;99632.50;4967408;27;20251;-83
2023/01/03 15:12:51;;;;;;;5.00;2.92;;;;;;;-20.59;68.93;99745.91;4947751;28;20058;-83
2023/01/03 15:15:29;;;;;;;3.25;3.05;;;;;;;-20.79;68.38;99745.59;4963381;28;20066;-83
2023/01/03 15:20:53;;;;;;;3.67;3.30;;;;;;;-21.02;68.56;99721.88;4947511;28;20044;-82
2023/01/03 15:23:40;;;;;;;3.08;2.85;;;;;;;-20.81;68.51;99742.97;4963883;28;20046;-82
2023/01/03 15:26:28;;;;;;;3.35;3.03;;;;;;;-20.78;69.36;99702.66;4964200;27;20052;-82
2023/01/03 15:36:19;;;;;;;6.43;3.47;;;;;;;-20.80;67.49;99769.53;4957179;28;20362;-82
2023/01/03 15:38:50;;;;;;;3.97;3.30;;;;;;;-21.06;66.54;99759.56;4972420;28;20049;-83
2023/01/03 15:44:08;;;;;;;3.22;3.00;;;;;;;-21.43;66.89;99725.31;4956667;28;20057;-83
2023/01/03 15:49:40;;;;;;;7.45;3.38;;;;;;;-21.35;67.84;99704.56;4951142;28;20595;-82
2023/01/03 15:52:14;;;;;;;7.72;4.72;;;;;;;-21.19;67.87;99751.59;4954605;27;20166;-82
2023/01/03 15:54:46;;;;;;;6.20;4.82;;;;;;;-21.67;68.56;99713.81;4963394;28;20046;-83
2023/01/03 15:57:19;;;;;;;4.55;4.15;;;;;;;-21.59;69.73;99737.75;4961480;28;20054;-82
2023/01/03 15:59:53;;;;;;;4.93;4.40;;;;;;;-21.42;71.06;99737.84;4946050;28;20081;-82